createdAt,value
2022-09-10T00:02:50.480Z,18.48
2022-09-10T00:07:56.247Z,18.11
2022-09-10T00:13:00.170Z,18.27
2022-09-10T00:18:04.051Z,18.50
2022-09-10T00:23:09.674Z,18.76
2022-09-10T00:28:14.342Z,18.85
2022-09-10T00:33:20.585Z,18.85
2022-09-10T00:38:27.492Z,18.68
2022-09-10T00:43:48.876Z,18.79
2022-09-10T00:48:54.256Z,18.72
2022-09-10T00:54:00.759Z,18.59
2022-09-10T00:59:09.031Z,18.43
2022-09-10T01:04:13.374Z,18.19
2022-09-10T01:09:19.364Z,17.94
2022-09-10T01:14:35.925Z,17.70
2022-09-10T01:20:20.553Z,17.72
2022-09-10T01:25:41.336Z,17.93
2022-09-10T01:30:52.824Z,17.87
2022-09-10T01:36:01.926Z,17.97
2022-09-10T01:41:08.141Z,18.22
2022-09-10T01:46:34.916Z,18.33
2022-09-10T01:51:53.382Z,18.27
2022-09-10T01:57:09.969Z,18.02
2022-09-10T02:02:23.748Z,17.69
2022-09-10T02:07:29.545Z,18.05
2022-09-10T02:12:33.679Z,17.94
2022-09-10T02:18:01.426Z,17.97
2022-09-10T02:23:07.526Z,17.68
2022-09-10T02:28:12.116Z,17.83
2022-09-10T02:33:18.555Z,18.24
2022-09-10T02:38:22.849Z,18.10
2022-09-10T02:43:27.242Z,17.89
2022-09-10T02:48:35.254Z,17.64
2022-09-10T02:53:40.034Z,17.85
2022-09-10T02:58:45.319Z,17.64
2022-09-10T03:03:54.464Z,17.90
2022-09-10T03:08:58.584Z,17.79
2022-09-10T03:14:03.893Z,17.78
2022-09-10T03:19:10.189Z,17.82
2022-09-10T03:24:15.569Z,17.66
2022-09-10T03:29:23.194Z,17.54
2022-09-10T03:34:28.853Z,17.43
2022-09-10T03:39:32.843Z,17.47
2022-09-10T03:44:37.059Z,17.29
2022-09-10T03:49:42.802Z,17.25
2022-09-10T03:54:47.304Z,17.48
2022-09-10T03:59:52.780Z,17.86
2022-09-10T04:04:58.387Z,17.44
2022-09-10T04:10:02.348Z,17.47
2022-09-10T04:15:08.173Z,17.52
2022-09-10T04:20:13.941Z,17.63
2022-09-10T04:25:18.697Z,17.69
2022-09-10T04:30:23.553Z,17.74
2022-09-10T04:35:30.453Z,17.79
2022-09-10T04:40:35.869Z,17.98
2022-09-10T04:45:41.344Z,17.98
2022-09-10T04:51:14.396Z,17.87
2022-09-10T04:56:16.685Z,18.05
2022-09-10T05:01:20.663Z,18.26
2022-09-10T05:06:29.800Z,18.57
2022-09-10T05:11:33.858Z,18.24
2022-09-10T05:16:38.974Z,18.36
2022-09-10T05:21:44.540Z,18.73
2022-09-10T05:26:50.172Z,18.40
2022-09-10T05:31:54.435Z,18.68
2022-09-10T05:37:01.643Z,18.73
2022-09-10T05:42:07.281Z,18.86
2022-09-10T05:47:12.742Z,18.51
2022-09-10T05:52:18.955Z,18.63
2022-09-10T05:57:23.079Z,18.85
2022-09-10T06:02:28.121Z,19.00
2022-09-10T06:07:35.506Z,19.22
2022-09-10T06:12:40.323Z,19.35
2022-09-10T06:17:44.822Z,19.16
2022-09-10T06:22:52.146Z,18.94
2022-09-10T06:27:56.546Z,19.13
2022-09-10T06:33:00.869Z,19.40
2022-09-10T06:38:06.719Z,19.13
2022-09-10T06:43:11.893Z,19.23
2022-09-10T06:48:50.225Z,19.39
2022-09-10T06:53:58.155Z,19.66
2022-09-10T06:59:02.874Z,19.65
2022-09-10T07:04:14.044Z,20.00
2022-09-10T07:09:21.104Z,20.39
2022-09-10T07:14:39.051Z,20.69
2022-09-10T07:19:45.434Z,20.78
2022-09-10T07:25:01.963Z,20.44
2022-09-10T07:30:24.855Z,20.44
2022-09-10T07:35:31.412Z,20.66
2022-09-10T07:40:38.405Z,21.02
2022-09-10T07:45:43.290Z,21.95
2022-09-10T07:50:48.668Z,22.74
2022-09-10T07:56:02.296Z,22.56
2022-09-10T08:01:13.904Z,22.87
2022-09-10T08:06:20.466Z,22.88
2022-09-10T08:11:35.717Z,23.50
2022-09-10T08:16:44.487Z,24.02
2022-09-10T08:21:49.987Z,24.99
2022-09-10T08:27:03.791Z,25.62
2022-09-10T08:32:09.469Z,26.44
2022-09-10T08:37:14.659Z,26.83
2022-09-10T08:42:24.257Z,27.73
2022-09-10T08:47:35.629Z,28.51
2022-09-10T08:52:50.823Z,28.75
2022-09-10T08:58:07.082Z,29.22
2022-09-10T09:03:19.575Z,29.47
2022-09-10T09:08:27.242Z,30.10
2022-09-10T09:13:56.389Z,29.91
2022-09-10T09:19:15.879Z,30.57
2022-09-10T09:24:25.674Z,30.75
2022-09-10T09:29:41.107Z,30.67
2022-09-10T09:34:50.545Z,30.78
2022-09-10T09:40:06.938Z,30.21
2022-09-10T09:45:23.429Z,30.62
2022-09-10T09:50:30.738Z,30.49
2022-09-10T09:55:40.428Z,30.79
2022-09-10T10:00:45.901Z,31.07
2022-09-10T10:05:49.982Z,29.09
2022-09-10T10:10:54.122Z,29.04
2022-09-10T10:16:17.682Z,28.49
2022-09-10T10:21:23.591Z,29.32
2022-09-10T10:26:32.567Z,29.62
2022-09-10T10:31:41.119Z,28.88
2022-09-10T10:36:55.749Z,28.36
2022-09-10T10:42:08.110Z,27.57
2022-09-10T10:47:44.530Z,27.02
2022-09-10T10:53:11.894Z,28.00
2022-09-10T10:58:35.363Z,27.97
2022-09-10T11:03:44.879Z,28.46
2022-09-10T11:08:53.382Z,28.52
2022-09-10T11:14:03.847Z,27.85
2022-09-10T11:19:18.525Z,28.05
2022-09-10T11:24:32.199Z,29.01
2022-09-10T11:29:43.805Z,30.05
2022-09-10T11:34:59.247Z,30.07
2022-09-10T11:40:12.928Z,30.33
2022-09-10T11:45:25.382Z,29.60
2022-09-10T11:50:43.130Z,30.17
2022-09-10T11:56:30.849Z,29.86
2022-09-10T12:01:57.988Z,30.16
2022-09-10T12:07:20.059Z,30.11
2022-09-10T12:12:40.140Z,29.67
2022-09-10T12:17:51.246Z,29.30
2022-09-10T12:23:07.350Z,28.53
2022-09-10T12:28:54.499Z,28.24
2022-09-10T12:34:18.202Z,28.16
2022-09-10T12:39:25.982Z,28.37
2022-09-10T12:44:57.243Z,28.79
2022-09-10T12:50:04.280Z,28.12
2022-09-10T12:55:22.133Z,27.77
2022-09-10T13:00:28.120Z,27.46
2022-09-10T13:05:45.820Z,27.02
2022-09-10T13:11:15.964Z,26.62
2022-09-10T13:16:25.162Z,25.54
2022-09-10T13:21:58.630Z,24.46
2022-09-10T13:27:20.018Z,24.06
2022-09-10T13:32:30.363Z,24.10
2022-09-10T13:38:09.784Z,24.37
2022-09-10T13:43:31.671Z,23.50
2022-09-10T13:48:46.177Z,23.15
2022-09-10T13:53:51.184Z,23.38
2022-09-10T13:59:02.187Z,23.67
2022-09-10T14:04:26.297Z,23.39
2022-09-10T14:09:34.776Z,23.06
2022-09-10T14:14:44.224Z,22.74
2022-09-10T14:19:54.976Z,23.10
2022-09-10T14:25:01.650Z,23.14
2022-09-10T14:30:25.907Z,23.23
2022-09-10T14:35:41.086Z,22.99
2022-09-10T14:40:49.764Z,22.41
2022-09-10T14:45:55.346Z,22.78
2022-09-10T14:51:22.011Z,22.50
2022-09-10T14:56:28.625Z,22.51
2022-09-10T15:01:38.281Z,21.75
2022-09-10T15:06:44.837Z,21.92
2022-09-10T15:11:56.029Z,22.66
2022-09-10T15:17:01.761Z,23.22
2022-09-10T15:22:07.274Z,23.32
2022-09-10T15:27:13.724Z,23.36
2022-09-10T15:32:19.186Z,23.16
2022-09-10T15:37:23.200Z,23.03
2022-09-10T15:42:28.119Z,22.83
2022-09-10T15:47:34.485Z,22.99
2022-09-10T15:52:38.781Z,23.04
2022-09-10T15:57:42.964Z,22.64
2022-09-10T16:02:52.022Z,22.54
2022-09-10T16:07:56.860Z,22.54
2022-09-10T16:13:00.863Z,22.51
2022-09-10T16:18:06.649Z,22.20
2022-09-10T16:23:10.544Z,21.87
2022-09-10T16:28:14.929Z,21.62
2022-09-10T16:33:20.700Z,21.55
2022-09-10T16:38:25.884Z,21.27
2022-09-10T16:43:32.226Z,21.46
2022-09-10T16:48:39.739Z,21.25
2022-09-10T16:53:45.501Z,20.89
2022-09-10T16:58:49.994Z,21.04
2022-09-10T17:03:56.211Z,20.90
2022-09-10T17:09:01.989Z,20.97
2022-09-10T17:14:09.171Z,20.94
2022-09-10T17:19:16.022Z,20.63
2022-09-10T17:24:22.677Z,20.52
2022-09-10T17:29:27.776Z,20.83
2022-09-10T17:34:34.326Z,20.73
2022-09-10T17:39:39.028Z,20.06
2022-09-10T17:44:44.835Z,20.05
2022-09-10T17:49:50.855Z,20.43
2022-09-10T17:54:54.773Z,20.63
2022-09-10T17:59:58.729Z,20.60
2022-09-10T18:05:05.726Z,20.43
2022-09-10T18:10:10.144Z,20.43
2022-09-10T18:15:14.114Z,20.43
2022-09-10T18:20:20.251Z,20.26
2022-09-10T18:25:27.325Z,20.15
2022-09-10T18:30:31.472Z,19.88
2022-09-10T18:35:38.162Z,19.81
2022-09-10T18:40:42.617Z,19.70
2022-09-10T18:45:46.524Z,19.86
2022-09-10T18:50:51.998Z,19.94
2022-09-10T18:55:56.109Z,19.93
2022-09-10T19:01:06.208Z,19.71
2022-09-10T19:06:13.447Z,19.45
2022-09-10T19:11:19.232Z,19.75
2022-09-10T19:16:25.370Z,19.74
2022-09-10T19:21:33.114Z,19.91
2022-09-10T19:26:37.360Z,19.86
2022-09-10T19:31:42.393Z,19.45
2022-09-10T19:36:48.118Z,19.19
2022-09-10T19:41:52.415Z,19.47
2022-09-10T19:46:56.457Z,19.40
2022-09-10T19:52:01.854Z,19.45
2022-09-10T19:57:05.944Z,19.32
2022-09-10T20:02:10.835Z,19.24
2022-09-10T20:07:16.353Z,19.35
2022-09-10T20:12:20.836Z,19.39
2022-09-10T20:17:24.732Z,18.79
2022-09-10T20:22:35.743Z,18.84
2022-09-10T20:27:42.408Z,18.99
2022-09-10T20:32:46.995Z,18.68
2022-09-10T20:37:52.713Z,18.37
2022-09-10T20:42:56.871Z,18.48
2022-09-10T20:48:02.160Z,18.80
2022-09-10T20:53:07.488Z,18.85
2022-09-10T20:58:11.454Z,18.75
2022-09-10T21:03:15.471Z,18.85
2022-09-10T21:08:20.900Z,18.62
2022-09-10T21:13:26.210Z,18.35
2022-09-10T21:18:30.215Z,18.36
2022-09-10T21:23:36.785Z,18.57
2022-09-10T21:28:41.245Z,18.75
2022-09-10T21:33:45.344Z,18.52
2022-09-10T21:38:51.800Z,18.59
2022-09-10T21:43:56.029Z,18.24
2022-09-10T21:49:00.150Z,18.50
2022-09-10T21:54:05.990Z,18.30
2022-09-10T21:59:12.226Z,18.65
2022-09-10T22:04:22.172Z,18.70
2022-09-10T22:09:28.018Z,18.41
2022-09-10T22:14:32.281Z,18.34
2022-09-10T22:19:37.203Z,18.04
2022-09-10T22:24:42.749Z,17.74
2022-09-10T22:29:46.671Z,17.81
2022-09-10T22:34:50.748Z,17.70
2022-09-10T22:39:57.131Z,17.85
2022-09-10T22:45:03.671Z,17.74
2022-09-10T22:50:08.043Z,17.57
2022-09-10T22:55:14.492Z,17.50
2022-09-10T23:00:18.736Z,17.57
2022-09-10T23:05:22.989Z,17.65
2022-09-10T23:10:28.276Z,17.61
2022-09-10T23:15:33.312Z,17.35
2022-09-10T23:20:38.050Z,17.60
2022-09-10T23:25:43.573Z,17.49
2022-09-10T23:30:47.894Z,17.49
2022-09-10T23:35:52.914Z,17.63
2022-09-10T23:41:00.815Z,17.47
2022-09-10T23:46:04.955Z,17.22
2022-09-10T23:51:08.989Z,17.16
2022-09-10T23:56:14.589Z,16.98
